createdAt,value
2022-12-29T00:03:06.888Z,72.65
2022-12-29T00:08:06.605Z,72.54
2022-12-29T00:13:06.546Z,72.65
2022-12-29T00:18:06.485Z,72.75
2022-12-29T00:23:06.417Z,72.75
2022-12-29T00:28:07.423Z,72.85
2022-12-29T00:33:06.289Z,72.61
2022-12-29T00:38:06.215Z,73.05
2022-12-29T00:43:06.164Z,73.16
2022-12-29T00:48:06.085Z,73.67
2022-12-29T00:53:06.025Z,73.98
2022-12-29T00:58:05.958Z,74.18
2022-12-29T01:03:05.959Z,74.70
2022-12-29T01:08:05.824Z,74.80
2022-12-29T01:13:05.769Z,74.96
2022-12-29T01:18:05.718Z,75.31
2022-12-29T01:23:05.638Z,75.72
2022-12-29T01:28:05.563Z,76.23
2022-12-29T01:33:05.523Z,76.54
2022-12-29T01:38:05.433Z,76.84
2022-12-29T01:43:05.378Z,76.95
2022-12-29T01:48:05.320Z,76.91
2022-12-29T01:53:05.247Z,76.91
2022-12-29T01:58:05.173Z,77.02
2022-12-29T02:03:05.210Z,77.22
2022-12-29T02:08:05.059Z,77.53
2022-12-29T02:13:04.984Z,77.73
2022-12-29T02:18:04.915Z,77.63
2022-12-29T02:23:04.859Z,77.53
2022-12-29T02:28:04.789Z,77.73
2022-12-29T02:33:04.728Z,77.83
2022-12-29T02:38:04.657Z,78.24
2022-12-29T02:43:04.601Z,78.21
2022-12-29T02:48:04.525Z,78.11
2022-12-29T02:53:04.467Z,78.11
2022-12-29T02:58:04.395Z,78.11
2022-12-29T03:03:04.514Z,77.70
2022-12-29T03:08:04.263Z,77.56
2022-12-29T03:13:04.203Z,77.05
2022-12-29T03:18:04.128Z,76.84
2022-12-29T03:23:04.096Z,76.53
2022-12-29T03:28:04.011Z,76.53
2022-12-29T03:33:03.944Z,76.84
2022-12-29T03:38:03.878Z,76.94
2022-12-29T03:43:03.803Z,77.25
2022-12-29T03:48:03.750Z,77.45
2022-12-29T03:53:03.679Z,77.86
2022-12-29T03:58:03.615Z,78.03
2022-12-29T04:03:03.736Z,78.34
2022-12-29T04:08:03.476Z,78.55
2022-12-29T04:13:03.419Z,78.85
2022-12-29T04:18:03.346Z,78.92
2022-12-29T04:23:03.277Z,79.02
2022-12-29T04:28:03.235Z,79.02
2022-12-29T04:33:03.141Z,78.92
2022-12-29T04:38:03.068Z,79.74
2022-12-29T04:43:03.009Z,80.69
2022-12-29T04:48:02.933Z,80.45
2022-12-29T04:53:02.901Z,80.04
2022-12-29T04:58:02.807Z,80.35
2022-12-29T05:03:02.936Z,80.69
2022-12-29T05:08:02.677Z,80.90
2022-12-29T05:13:02.618Z,81.10
2022-12-29T05:18:02.550Z,81.75
2022-12-29T05:23:02.484Z,81.75
2022-12-29T05:28:02.414Z,81.96
2022-12-29T05:33:02.343Z,82.16
2022-12-29T05:38:02.315Z,82.16
2022-12-29T05:43:02.218Z,82.06
2022-12-29T05:48:02.159Z,82.37
2022-12-29T05:53:02.087Z,82.47
2022-12-29T05:58:02.045Z,82.26
2022-12-29T06:03:02.188Z,82.37
2022-12-29T06:08:01.915Z,82.47
2022-12-29T06:13:01.821Z,82.26
2022-12-29T06:18:01.768Z,81.51
2022-12-29T06:23:01.688Z,80.96
2022-12-29T06:28:01.631Z,80.96
2022-12-29T06:33:01.567Z,81.37
2022-12-29T06:38:01.500Z,81.98
2022-12-29T06:43:01.492Z,82.43
2022-12-29T06:48:01.369Z,82.94
2022-12-29T06:53:01.299Z,83.25
2022-12-29T06:58:01.242Z,83.66
2022-12-29T07:03:01.482Z,83.86
2022-12-29T07:08:01.137Z,83.97
2022-12-29T07:13:01.036Z,84.17
2022-12-29T07:18:00.979Z,84.17
2022-12-29T07:23:00.923Z,83.97
2022-12-29T07:28:00.844Z,83.97
2022-12-29T07:33:00.786Z,83.76
2022-12-29T07:38:00.730Z,83.45
2022-12-29T07:43:00.641Z,83.15
2022-12-29T07:48:00.578Z,82.91
2022-12-29T07:53:00.507Z,82.91
2022-12-29T07:58:00.444Z,82.36
2022-12-29T08:03:00.371Z,82.15
2022-12-29T08:08:00.313Z,82.04
2022-12-29T08:13:00.240Z,81.70
2022-12-29T08:18:00.180Z,80.88
2022-12-29T08:23:00.138Z,80.24
2022-12-29T08:28:00.061Z,79.83
2022-12-29T08:32:59.979Z,79.73
2022-12-29T08:37:59.922Z,79.73
2022-12-29T08:42:59.846Z,78.97
2022-12-29T08:47:59.793Z,79.98
2022-12-29T08:52:59.720Z,75.46
2022-12-29T08:57:59.655Z,73.73
2022-12-29T09:02:59.767Z,67.78
2022-12-29T09:07:59.526Z,63.98
2022-12-29T09:12:59.455Z,61.57
2022-12-29T09:17:59.396Z,63.74
2022-12-29T09:22:59.324Z,69.23
2022-12-29T09:27:59.263Z,71.97
2022-12-29T09:32:59.193Z,73.46
2022-12-29T09:37:59.135Z,74.51
2022-12-29T09:42:59.070Z,75.26
2022-12-29T09:47:58.999Z,75.57
2022-12-29T09:52:58.933Z,78.93
2022-12-29T09:57:58.869Z,76.00
2022-12-29T10:02:58.953Z,75.09
2022-12-29T10:07:58.742Z,75.15
2022-12-29T10:12:58.688Z,74.38
2022-12-29T10:17:58.625Z,74.71
2022-12-29T10:22:58.550Z,74.71
2022-12-29T10:27:58.503Z,74.82
2022-12-29T10:32:58.413Z,74.07
2022-12-29T10:37:58.368Z,71.29
2022-12-29T10:42:58.289Z,68.38
2022-12-29T10:47:58.226Z,69.73
2022-12-29T10:52:58.171Z,71.33
2022-12-29T10:57:58.110Z,71.73
2022-12-29T11:02:58.204Z,72.47
2022-12-29T11:07:57.971Z,72.47
2022-12-29T11:12:57.907Z,72.78
2022-12-29T11:17:57.847Z,73.53
2022-12-29T11:22:57.766Z,73.93
2022-12-29T11:27:57.706Z,71.09
2022-12-29T11:32:57.646Z,71.42
2022-12-29T11:37:57.576Z,72.58
2022-12-29T11:42:57.505Z,73.49
2022-12-29T11:47:57.447Z,73.43
2022-12-29T11:52:57.373Z,73.84
2022-12-29T11:57:57.321Z,72.75
2022-12-29T12:02:57.316Z,69.81
2022-12-29T12:07:57.187Z,69.64
2022-12-29T12:12:57.111Z,71.60
2022-12-29T12:17:57.071Z,71.60
2022-12-29T12:22:56.982Z,71.73
2022-12-29T12:27:56.929Z,71.73
2022-12-29T12:32:56.867Z,73.05
2022-12-29T12:37:56.804Z,72.44
2022-12-29T12:42:56.729Z,72.47
2022-12-29T12:47:56.673Z,73.63
2022-12-29T12:52:56.593Z,75.09
2022-12-29T12:57:56.535Z,75.70
2022-12-29T13:02:56.799Z,75.90
2022-12-29T13:07:56.420Z,75.06
2022-12-29T13:12:56.337Z,74.14
2022-12-29T13:17:56.277Z,73.32
2022-12-29T13:22:56.202Z,73.87
2022-12-29T13:27:56.144Z,76.11
2022-12-29T13:32:56.071Z,76.25
2022-12-29T13:37:56.031Z,76.38
2022-12-29T13:42:55.937Z,76.38
2022-12-29T13:47:55.878Z,76.38
2022-12-29T13:52:55.806Z,76.52
2022-12-29T13:57:55.746Z,77.03
2022-12-29T14:02:55.876Z,76.92
2022-12-29T14:07:55.617Z,77.13
2022-12-29T14:12:55.543Z,76.62
2022-12-29T14:17:55.489Z,76.62
2022-12-29T14:22:55.411Z,76.86
2022-12-29T14:27:55.359Z,77.20
2022-12-29T14:32:55.281Z,77.71
2022-12-29T14:37:55.224Z,78.02
2022-12-29T14:42:55.150Z,78.26
2022-12-29T14:47:55.097Z,78.67
2022-12-29T14:53:02.037Z,80.10
2022-12-29T14:57:54.962Z,78.40
2022-12-29T15:02:55.050Z,78.19
2022-12-29T15:07:54.835Z,77.89
2022-12-29T15:12:54.759Z,77.48
2022-12-29T15:17:54.713Z,76.90
2022-12-29T15:22:54.629Z,75.88
2022-12-29T15:27:54.573Z,75.68
2022-12-29T15:32:54.504Z,75.06
2022-12-29T15:37:54.439Z,75.10
2022-12-29T15:42:54.378Z,75.00
2022-12-29T15:47:54.308Z,75.30
2022-12-29T15:52:54.231Z,74.93
2022-12-29T15:57:54.181Z,74.93
2022-12-29T16:02:54.281Z,74.35
2022-12-29T16:07:54.075Z,74.45
2022-12-29T16:12:54.000Z,74.28
2022-12-29T16:17:53.960Z,74.08
2022-12-29T16:22:53.850Z,74.18
2022-12-29T16:27:53.781Z,74.53
2022-12-29T16:32:53.708Z,74.83
2022-12-29T16:37:53.650Z,75.45
2022-12-29T16:42:53.575Z,75.75
2022-12-29T16:47:53.520Z,75.65
2022-12-29T16:52:53.447Z,75.86
2022-12-29T16:57:53.385Z,76.06
2022-12-29T17:02:53.442Z,76.20
2022-12-29T17:07:53.253Z,76.20
2022-12-29T17:12:53.187Z,76.30
2022-12-29T17:17:53.129Z,76.71
2022-12-29T17:22:53.060Z,76.84
2022-12-29T17:27:53.008Z,77.25
2022-12-29T17:32:52.925Z,77.80
2022-12-29T17:37:52.863Z,78.52
2022-12-29T17:42:52.833Z,79.24
2022-12-29T17:47:52.751Z,79.89
2022-12-29T17:52:52.715Z,80.31
2022-12-29T17:57:52.606Z,80.51
2022-12-29T18:02:52.784Z,80.82
2022-12-29T18:07:52.478Z,81.53
2022-12-29T18:12:52.405Z,82.15
2022-12-29T18:17:52.347Z,82.56
2022-12-29T18:22:52.273Z,82.52
2022-12-29T18:27:52.215Z,81.87
2022-12-29T18:32:52.141Z,81.56
2022-12-29T18:37:52.085Z,81.46
2022-12-29T18:42:52.015Z,81.42
2022-12-29T18:47:51.955Z,81.42
2022-12-29T18:52:51.886Z,81.69
2022-12-29T18:57:51.821Z,81.28
2022-12-29T19:02:51.817Z,81.11
2022-12-29T19:07:51.691Z,81.21
2022-12-29T19:12:51.627Z,81.42
2022-12-29T19:18:16.041Z,81.87
2022-12-29T19:22:52.522Z,82.31
2022-12-29T19:27:51.429Z,82.52
2022-12-29T19:32:51.362Z,82.42
2022-12-29T19:37:51.314Z,82.52
2022-12-29T19:42:51.236Z,82.52
2022-12-29T19:47:51.209Z,82.52
2022-12-29T19:52:52.329Z,82.73
2022-12-29T19:57:51.045Z,83.03
2022-12-29T20:02:51.134Z,83.17
2022-12-29T20:07:50.911Z,83.38
2022-12-29T20:12:50.847Z,83.48
2022-12-29T20:22:51.741Z,83.83
2022-12-29T20:27:50.654Z,83.93
2022-12-29T20:32:50.583Z,84.07
2022-12-29T20:37:50.697Z,84.17
2022-12-29T20:42:50.452Z,84.28
2022-12-29T20:47:50.391Z,84.28
2022-12-29T20:52:50.321Z,84.52
2022-12-29T20:58:22.658Z,84.73
2022-12-29T21:02:51.309Z,84.52
2022-12-29T21:07:50.133Z,84.42
2022-12-29T21:12:50.076Z,84.42
2022-12-29T21:17:50.014Z,84.36
2022-12-29T21:22:49.956Z,84.25
2022-12-29T21:27:49.874Z,83.91
2022-12-29T21:32:49.797Z,83.91
2022-12-29T21:37:49.742Z,84.05
2022-12-29T21:42:49.686Z,84.15
2022-12-29T21:47:49.743Z,84.50
2022-12-29T21:52:49.663Z,84.91
2022-12-29T21:57:49.615Z,85.36
2022-12-29T22:02:49.772Z,85.77
2022-12-29T22:07:49.434Z,85.98
2022-12-29T22:12:49.366Z,85.98
2022-12-29T22:17:49.335Z,86.12
2022-12-29T22:22:49.197Z,86.68
2022-12-29T22:27:52.857Z,87.60
2022-12-29T22:32:49.016Z,87.81
2022-12-29T22:37:49.005Z,87.50
2022-12-29T22:42:49.134Z,87.40
2022-12-29T22:47:49.134Z,87.60
2022-12-29T22:52:48.997Z,87.35
2022-12-29T22:57:48.886Z,86.84
2022-12-29T23:02:49.231Z,85.98
2022-12-29T23:07:48.962Z,85.16
2022-12-29T23:12:48.984Z,84.33
2022-12-29T23:17:48.431Z,83.57
2022-12-29T23:22:48.352Z,83.06
2022-12-29T23:27:48.295Z,82.44
2022-12-29T23:32:48.239Z,81.58
2022-12-29T23:37:48.172Z,80.96
2022-12-29T23:42:48.094Z,80.24
2022-12-29T23:47:48.036Z,80.45
2022-12-29T23:52:47.964Z,80.66
2022-12-29T23:57:47.906Z,80.80
